Bar Harbor, ME

10:25 AM EDT on April 23, 2017 (GMT -0400)
Hancock County-Bar Harbor

Weather History for KBHB - May, 2013

Change the Weather History Date:

Saturday, May 25, 2013

  Actual Average Record
Temperature  
Mean Temperature 50 °F -  
Max Temperature 51 °F 64 °F 91 °F (2007)
Min Temperature 48 °F 44 °F 33 °F (1956)
Degree Days  
Heating Degree Days 16    
Moisture  
Dew Point 50 °F    
Average Humidity 98    
Maximum Humidity 100    
Minimum Humidity 93    
Precipitation  
Precipitation 0.00 in - - ()
Sea Level Pressure  
Sea Level Pressure 29.76 in    
Wind  
Wind Speed 11 mph (NE)    
Max Wind Speed 17 mph    
Max Gust Speed 24 mph    
Visibility 6 miles    
Events      
Averages and records for this station are not official NWS values.
T = Trace of Precipitation, MM = Missing Value Source: NWS Daily Summary

Daily Weather History Graph

Daily Weather History Graph

Search for Another Location

Airport or City:

Trip Planner

Search our weather history database for the weather conditions in past years. The results will help you decide how hot, cold, wet, or windy it might be!

Date:

Astronomy

May. 25, 2013 Rise Set
Actual Time 4:56 AM EDT 8:04 PM EDT
Civil Twilight 4:21 AM EDT 8:40 PM EDT
Nautical Twilight 3:36 AM EDT 9:25 PM EDT
Astronomical Twilight 2:41 AM EDT 10:20 PM EDT
Moon 8:48 PM EDT (5/25) 5:20 AM EDT (5/25)
Length of Visible Light 16h 18m
Length of Day
15h 08m
Full, 100% of the Moon is Illuminated
May 25
Full
May 31
Last Quarter
Jun 8
New
Jun 16
First Quarter
Jun 23
Full

Hourly Weather History & Observations

Time (EDT) Temp. Dew Point Humidity Pressure Visibility Wind Dir Wind Speed Gust Speed Precip Events Conditions
12:15 AM 50.0 °F 48.2 °F 94% 29.82 in 10.0 mi North 11.5 mph 19.6 mph N/A   Overcast
12:35 AM 50.0 °F 48.2 °F 94% 29.82 in 10.0 mi North 8.1 mph - N/A   Overcast
12:55 AM 50.0 °F 48.2 °F 94% 29.81 in 10.0 mi North 11.5 mph 18.4 mph N/A   Overcast
1:15 AM 50.0 °F 48.2 °F 94% 29.82 in 10.0 mi North 9.2 mph - N/A   Overcast
1:35 AM 50.0 °F 48.2 °F 94% 29.82 in 10.0 mi North 8.1 mph - N/A   Overcast
1:55 AM 50.0 °F 50.0 °F 100% 29.80 in 10.0 mi North 9.2 mph - N/A   Overcast
2:15 AM 50.0 °F 50.0 °F 100% 29.81 in 10.0 mi North 8.1 mph - N/A   Overcast
2:35 AM 50.0 °F 50.0 °F 100% 29.79 in 10.0 mi North 11.5 mph - N/A   Overcast
2:55 AM 50.0 °F 50.0 °F 100% 29.79 in 10.0 mi North 10.4 mph 17.3 mph N/A   Overcast
3:15 AM 50.0 °F 50.0 °F 100% 29.78 in 9.0 mi North 10.4 mph - N/A   Overcast
3:35 AM 50.0 °F 50.0 °F 100% 29.78 in 10.0 mi NNE 12.7 mph - N/A   Overcast
3:55 AM 50.0 °F 50.0 °F 100% 29.77 in 4.0 mi North 11.5 mph - N/A   Overcast
4:15 AM 50.0 °F 50.0 °F 100% 29.78 in 6.0 mi North 10.4 mph - N/A   Overcast
4:36 AM 50.0 °F 48.2 °F 94% 29.78 in 7.0 mi NNE 6.9 mph - N/A   Overcast
4:55 AM 51.8 °F 51.8 °F 100% 29.78 in 4.0 mi NNE 10.4 mph - N/A   Overcast
5:15 AM 51.8 °F 51.8 °F 100% 29.78 in 3.0 mi NNE 10.4 mph - N/A   Overcast
5:35 AM 51.8 °F 51.8 °F 100% 29.79 in 2.5 mi NNE 9.2 mph - N/A   Overcast
5:55 AM 51.8 °F 51.8 °F 100% 29.78 in 2.5 mi North 11.5 mph - N/A   Overcast
6:15 AM 51.8 °F 51.8 °F 100% 29.79 in 8.0 mi North 10.4 mph - N/A   Overcast
6:35 AM 51.8 °F 51.8 °F 100% 29.79 in 2.5 mi NNE 9.2 mph - N/A   Overcast
6:55 AM 51.8 °F 51.8 °F 100% 29.78 in 4.0 mi NNE 15.0 mph 19.6 mph N/A   Overcast
7:15 AM 51.8 °F 51.8 °F 100% 29.77 in 9.0 mi NNE 15.0 mph 18.4 mph N/A   Overcast
7:36 AM 51.8 °F 51.8 °F 100% 29.78 in 10.0 mi NNE 11.5 mph 20.7 mph N/A   Overcast
7:55 AM 51.8 °F 51.8 °F 100% 29.78 in 10.0 mi NNE 16.1 mph 21.9 mph N/A   Overcast
8:15 AM 51.8 °F 51.8 °F 100% 29.77 in 10.0 mi NNE 16.1 mph 21.9 mph N/A   Overcast
8:35 AM 51.8 °F 51.8 °F 100% 29.77 in 6.0 mi NNE 13.8 mph 24.2 mph N/A   Overcast
8:55 AM 51.8 °F 51.8 °F 100% 29.77 in 8.0 mi NNE 15.0 mph 19.6 mph N/A   Overcast
9:15 AM 51.8 °F 50.0 °F 94% 29.77 in 5.0 mi NNE 13.8 mph 21.9 mph N/A   Overcast
9:35 AM 51.8 °F 50.0 °F 94% 29.76 in 3.0 mi NNE 17.3 mph 24.2 mph N/A   Overcast
9:55 AM 50.0 °F 50.0 °F 100% 29.76 in 3.0 mi NE 13.8 mph 23.0 mph N/A   Overcast
10:15 AM 50.0 °F 50.0 °F 100% 29.78 in 1.8 mi NE 9.2 mph 17.3 mph N/A   Overcast
10:35 AM 50.0 °F 50.0 °F 100% 29.76 in 2.5 mi NE 16.1 mph 23.0 mph N/A   Overcast
10:55 AM 50.0 °F 50.0 °F 100% 29.77 in 3.0 mi NNE 13.8 mph 19.6 mph N/A   Overcast
11:15 AM 50.0 °F 50.0 °F 100% 29.76 in 5.0 mi NNE 12.7 mph 18.4 mph N/A   Overcast
11:35 AM 50.0 °F 48.2 °F 94% 29.77 in 3.0 mi NNE 15.0 mph 19.6 mph N/A   Overcast
11:55 AM 50.0 °F 48.2 °F 94% 29.75 in 3.0 mi NE 15.0 mph 20.7 mph N/A   Overcast
12:15 PM 50.0 °F 50.0 °F 100% 29.76 in 4.0 mi NNE 15.0 mph 19.6 mph N/A   Overcast
12:35 PM 50.0 °F 50.0 °F 100% 29.75 in 4.0 mi NE 11.5 mph 19.6 mph N/A   Overcast
12:55 PM 50.0 °F 50.0 °F 100% 29.74 in 6.0 mi NE 15.0 mph 20.7 mph N/A   Overcast
1:15 PM 50.0 °F 50.0 °F 100% 29.74 in 5.0 mi NE 11.5 mph 17.3 mph N/A   Overcast
1:35 PM 50.0 °F 50.0 °F 100% 29.73 in 2.5 mi NE 13.8 mph 23.0 mph N/A   Overcast
1:55 PM 50.0 °F 50.0 °F 100% 29.73 in 2.0 mi NE 12.7 mph 21.9 mph N/A   Overcast
2:15 PM 50.0 °F 50.0 °F 100% 29.72 in 2.5 mi NE 11.5 mph - N/A   Overcast
2:35 PM 51.8 °F 51.8 °F 100% 29.71 in 2.0 mi NE 11.5 mph 19.6 mph N/A   Overcast
2:55 PM 51.8 °F 51.8 °F 100% 29.71 in 3.0 mi NE 11.5 mph 18.4 mph N/A   Overcast
3:15 PM 51.8 °F 51.8 °F 100% 29.71 in 4.0 mi NE 10.4 mph - N/A   Overcast
3:35 PM 51.8 °F 51.8 °F 100% 29.71 in 1.5 mi NE 9.2 mph - N/A   Overcast
3:55 PM 51.8 °F 50.0 °F 94% 29.72 in 1.5 mi NE 10.4 mph 17.3 mph N/A   Overcast
4:15 PM 51.8 °F 50.0 °F 94% 29.71 in 2.0 mi ENE 9.2 mph 17.3 mph N/A   Overcast
4:35 PM 51.8 °F 50.0 °F 94% 29.72 in 2.5 mi East 9.2 mph 17.3 mph N/A   Overcast
4:55 PM 51.8 °F 51.8 °F 100% 29.72 in 2.5 mi ENE 10.4 mph - N/A   Overcast
5:15 PM 51.8 °F 51.8 °F 100% 29.72 in 1.5 mi ENE 8.1 mph - N/A   Overcast
5:35 PM 51.8 °F 51.8 °F 100% 29.72 in 1.5 mi East 9.2 mph - N/A   Overcast
5:55 PM 51.8 °F 51.8 °F 100% 29.72 in 1.2 mi ENE 6.9 mph - N/A   Overcast
6:15 PM 50.0 °F 48.2 °F 94% 29.73 in 1.0 mi East 6.9 mph - N/A   Overcast
6:35 PM 50.0 °F 50.0 °F 100% 29.73 in 1.2 mi East 11.5 mph 16.1 mph N/A   Overcast
6:55 PM 50.0 °F 50.0 °F 100% 29.74 in 0.8 mi East 11.5 mph 18.4 mph N/A   Overcast
7:15 PM 50.0 °F 50.0 °F 100% 29.73 in 2.5 mi East 11.5 mph 17.3 mph N/A   Overcast
7:35 PM 48.2 °F 48.2 °F 100% 29.73 in 1.2 mi East 10.4 mph 17.3 mph N/A   Overcast
7:55 PM 48.2 °F 48.2 °F 100% 29.73 in 3.0 mi East 10.4 mph 17.3 mph N/A   Overcast
8:15 PM 48.2 °F 48.2 °F 100% 29.74 in 10.0 mi East 6.9 mph - N/A   Overcast
8:35 PM 48.2 °F 48.2 °F 100% 29.74 in 5.0 mi East 9.2 mph - N/A   Overcast
8:55 PM 48.2 °F 48.2 °F 100% 29.75 in 8.0 mi East 12.7 mph 19.6 mph N/A   Overcast
9:15 PM 48.2 °F 48.2 °F 100% 29.75 in 5.0 mi East 6.9 mph 17.3 mph N/A   Overcast
9:35 PM 48.2 °F 48.2 °F 100% 29.75 in 9.0 mi East 8.1 mph - N/A   Overcast
9:55 PM 48.2 °F 48.2 °F 100% 29.74 in 10.0 mi East 9.2 mph 16.1 mph N/A   Overcast
10:15 PM 48.2 °F 46.4 °F 93% 29.74 in 10.0 mi East 10.4 mph - N/A   Overcast
10:35 PM 48.2 °F 46.4 °F 93% 29.75 in 9.0 mi East 10.4 mph - N/A   Overcast
10:56 PM 48.2 °F 46.4 °F 93% 29.75 in 10.0 mi East 8.1 mph - N/A   Overcast
11:15 PM 48.2 °F 48.2 °F 100% 29.74 in 10.0 mi East 8.1 mph - N/A   Overcast
11:35 PM 48.2 °F 48.2 °F 100% 29.74 in 10.0 mi ESE 8.1 mph - N/A   Overcast
11:55 PM 48.2 °F 46.4 °F 93% 29.74 in 10.0 mi East 6.9 mph - N/A   Overcast